createdAt,value
2023-03-06T00:01:04.620Z,99701.77
2023-03-06T00:03:34.508Z,99703.14
2023-03-06T00:06:03.891Z,99705.00
2023-03-06T00:08:32.887Z,99704.14
2023-03-06T00:11:01.880Z,99701.93
2023-03-06T00:13:32.616Z,99696.02
2023-03-06T00:16:01.820Z,99694.98
2023-03-06T00:18:30.844Z,99695.48
2023-03-06T00:20:59.966Z,99690.51
2023-03-06T00:23:29.086Z,99690.92
2023-03-06T00:25:58.048Z,99691.50
2023-03-06T00:28:27.064Z,99692.80
2023-03-06T00:30:55.977Z,99692.38
2023-03-06T00:33:24.922Z,99685.36
2023-03-06T00:35:56.023Z,99684.43
2023-03-06T00:38:28.225Z,99687.94
2023-03-06T00:40:58.081Z,99685.83
2023-03-06T00:43:27.243Z,99685.67
2023-03-06T00:45:56.446Z,99684.99
2023-03-06T00:48:25.377Z,99684.35
2023-03-06T00:50:54.722Z,99683.27
2023-03-06T00:53:23.579Z,99685.36
2023-03-06T00:55:52.745Z,99688.83
2023-03-06T00:58:21.765Z,99683.77
2023-03-06T01:00:51.020Z,99684.21
2023-03-06T01:03:19.752Z,99680.92
2023-03-06T01:05:48.585Z,99681.48
2023-03-06T01:08:17.296Z,99685.45
2023-03-06T01:10:46.237Z,99684.69
2023-03-06T01:13:14.983Z,99682.32
2023-03-06T01:15:43.948Z,99681.85
2023-03-06T01:18:12.764Z,99679.41
2023-03-06T01:20:41.588Z,99678.45
2023-03-06T01:23:10.427Z,99676.13
2023-03-06T01:25:39.337Z,99674.67
2023-03-06T01:28:08.135Z,99674.39
2023-03-06T01:30:37.745Z,99678.89
2023-03-06T01:33:06.487Z,99673.75
2023-03-06T01:35:38.214Z,99670.64
2023-03-06T01:38:07.760Z,99671.15
2023-03-06T01:40:39.168Z,99670.63
2023-03-06T01:43:26.602Z,99670.25
2023-03-06T01:46:29.192Z,99664.56
2023-03-06T01:49:21.630Z,99671.16
2023-03-06T01:52:00.936Z,99671.33
2023-03-06T01:54:45.039Z,99662.82
2023-03-06T01:57:20.985Z,99663.39
2023-03-06T01:59:56.150Z,99659.73
2023-03-06T02:02:27.059Z,99659.32
2023-03-06T02:04:55.850Z,99661.58
2023-03-06T02:07:25.340Z,99660.17
2023-03-06T02:09:54.119Z,99660.95
2023-03-06T02:12:25.786Z,99666.19
2023-03-06T02:14:54.824Z,99663.67
2023-03-06T02:17:24.855Z,99664.28
2023-03-06T02:20:25.267Z,99665.76
2023-03-06T02:23:53.839Z,99663.07
2023-03-06T02:26:24.185Z,99660.91
2023-03-06T02:28:52.961Z,99660.05
2023-03-06T02:31:33.218Z,99665.44
2023-03-06T02:34:04.507Z,99668.77
2023-03-06T02:36:42.139Z,99664.91
2023-03-06T02:39:11.565Z,99666.38
2023-03-06T02:41:40.442Z,99670.27
2023-03-06T02:44:09.385Z,99671.25
2023-03-06T02:46:38.100Z,99670.88
2023-03-06T02:49:06.902Z,99671.54
2023-03-06T02:51:36.345Z,99668.63
2023-03-06T02:54:05.077Z,99664.38
2023-03-06T02:56:33.834Z,99666.45
2023-03-06T02:59:02.836Z,99669.10
2023-03-06T03:01:31.966Z,99671.19
2023-03-06T03:04:00.765Z,99666.51
2023-03-06T03:06:29.616Z,99670.02
2023-03-06T03:08:59.278Z,99668.72
2023-03-06T03:11:28.216Z,99668.38
2023-03-06T03:13:57.301Z,99669.96
2023-03-06T03:16:26.329Z,99671.30
2023-03-06T03:18:58.114Z,99680.09
2023-03-06T03:21:28.028Z,99684.75
2023-03-06T03:23:57.254Z,99685.80
2023-03-06T03:26:27.030Z,99684.73
2023-03-06T03:29:00.968Z,99681.30
2023-03-06T03:31:29.877Z,99684.52
2023-03-06T03:33:59.073Z,99690.59
2023-03-06T03:36:30.647Z,99690.52
2023-03-06T03:38:59.521Z,99694.41
2023-03-06T03:41:28.370Z,99692.70
2023-03-06T03:43:57.518Z,99691.84
2023-03-06T03:46:26.949Z,99693.30
2023-03-06T03:48:56.771Z,99693.68
2023-03-06T03:51:25.572Z,99692.19
2023-03-06T03:53:57.239Z,99696.99
2023-03-06T03:56:27.580Z,99694.12
2023-03-06T03:59:09.961Z,99698.17
2023-03-06T04:01:44.976Z,99700.33
2023-03-06T04:04:13.829Z,99700.70
2023-03-06T04:06:42.784Z,99702.16
2023-03-06T04:09:11.851Z,99700.89
2023-03-06T04:11:40.785Z,99697.67
2023-03-06T04:14:10.029Z,99699.33
2023-03-06T04:16:39.051Z,99704.64
2023-03-06T04:19:08.120Z,99699.71
2023-03-06T04:21:37.116Z,99695.73
2023-03-06T04:24:07.172Z,99697.09
2023-03-06T04:26:37.296Z,99695.89
2023-03-06T04:29:06.403Z,99701.89
2023-03-06T04:31:35.174Z,99703.34
2023-03-06T04:34:04.579Z,99700.01
2023-03-06T04:36:35.329Z,99705.48
2023-03-06T04:39:07.772Z,99706.20
2023-03-06T04:41:36.664Z,99709.70
2023-03-06T04:44:05.797Z,99711.78
2023-03-06T04:46:35.546Z,99713.92
2023-03-06T04:49:04.582Z,99715.08
2023-03-06T04:51:33.334Z,99716.73
2023-03-06T04:54:02.016Z,99717.42
2023-03-06T04:56:31.413Z,99718.23
2023-03-06T04:58:59.982Z,99724.19
2023-03-06T05:01:28.543Z,99724.16
2023-03-06T05:03:57.138Z,99727.87
2023-03-06T05:06:25.674Z,99734.05
2023-03-06T05:08:54.295Z,99738.84
2023-03-06T05:11:23.033Z,99739.23
2023-03-06T05:13:51.943Z,99744.38
2023-03-06T05:16:21.012Z,99752.81
2023-03-06T05:18:50.772Z,99754.36
2023-03-06T05:21:19.421Z,99755.71
2023-03-06T05:23:47.970Z,99756.38
2023-03-06T05:26:16.645Z,99766.10
2023-03-06T05:28:45.275Z,99767.13
2023-03-06T05:31:13.907Z,99769.84
2023-03-06T05:33:42.337Z,99772.57
2023-03-06T05:36:10.972Z,99773.52
2023-03-06T05:38:39.429Z,99771.86
2023-03-06T05:41:13.197Z,99777.52
2023-03-06T05:43:42.291Z,99781.53
2023-03-06T05:46:11.815Z,99784.96
2023-03-06T05:48:40.612Z,99786.36
2023-03-06T05:51:11.210Z,99788.44
2023-03-06T05:53:39.768Z,99788.88
2023-03-06T05:56:11.451Z,99790.23
2023-03-06T05:58:40.267Z,99793.27
2023-03-06T06:01:18.716Z,99790.73
2023-03-06T06:03:47.625Z,99792.62
2023-03-06T06:06:16.057Z,99797.04
2023-03-06T06:08:44.599Z,99801.23
2023-03-06T06:11:14.144Z,99798.86
2023-03-06T06:13:42.622Z,99797.52
2023-03-06T06:16:16.008Z,99799.23
2023-03-06T06:18:44.887Z,99798.24
2023-03-06T06:21:17.382Z,99798.27
2023-03-06T06:23:46.335Z,99796.39
2023-03-06T06:26:14.954Z,99799.77
2023-03-06T06:28:43.469Z,99805.27
2023-03-06T06:31:13.782Z,99806.11
2023-03-06T06:33:42.357Z,99812.80
2023-03-06T06:36:21.416Z,99813.45
2023-03-06T06:38:54.071Z,99817.50
2023-03-06T06:44:15.596Z,99820.46
2023-03-06T06:49:34.476Z,99824.47
2023-03-06T06:52:04.529Z,99818.63
2023-03-06T06:54:35.095Z,99815.79
2023-03-06T06:57:03.587Z,99818.63
2023-03-06T06:59:32.082Z,99818.81
2023-03-06T07:02:00.611Z,99818.95
2023-03-06T07:04:29.117Z,99824.94
2023-03-06T07:06:58.348Z,99825.66
2023-03-06T07:09:26.821Z,99828.98
2023-03-06T07:11:55.219Z,99831.04
2023-03-06T07:14:23.695Z,99827.89
2023-03-06T07:16:52.198Z,99826.10
2023-03-06T07:19:20.798Z,99824.61
2023-03-06T07:21:49.336Z,99829.10
2023-03-06T07:24:17.863Z,99829.90
2023-03-06T07:26:49.320Z,99832.41
2023-03-06T07:29:17.713Z,99830.98
2023-03-06T07:31:47.095Z,99829.57
2023-03-06T07:34:16.413Z,99828.34
2023-03-06T07:36:44.953Z,99831.23
2023-03-06T07:39:13.485Z,99831.04
2023-03-06T07:41:42.093Z,99833.00
2023-03-06T07:44:10.597Z,99830.30
2023-03-06T07:46:39.212Z,99830.38
2023-03-06T07:49:07.794Z,99828.89
2023-03-06T07:51:36.284Z,99833.89
2023-03-06T07:54:04.775Z,99835.16
2023-03-06T07:56:35.178Z,99835.33
2023-03-06T07:59:03.833Z,99840.34
2023-03-06T08:01:32.294Z,99836.86
2023-03-06T08:04:02.119Z,99837.03
2023-03-06T08:06:30.706Z,99832.10
2023-03-06T08:08:59.767Z,99830.49
2023-03-06T08:11:30.793Z,99831.14
2023-03-06T08:14:00.766Z,99832.06
2023-03-06T08:16:30.920Z,99831.58
2023-03-06T08:18:59.821Z,99835.03
2023-03-06T08:21:28.933Z,99840.66
2023-03-06T08:23:57.601Z,99839.04
2023-03-06T08:26:29.814Z,99839.20
2023-03-06T08:29:01.138Z,99837.11
2023-03-06T08:31:38.470Z,99831.81
2023-03-06T08:34:12.727Z,99832.81
2023-03-06T08:36:41.354Z,99833.27
2023-03-06T08:39:10.447Z,99835.59
2023-03-06T08:41:39.362Z,99839.92
2023-03-06T08:44:08.113Z,99840.11
2023-03-06T08:46:37.494Z,99842.17
2023-03-06T08:49:06.009Z,99837.70
2023-03-06T08:51:34.581Z,99834.09
2023-03-06T08:54:03.381Z,99841.41
2023-03-06T08:56:34.452Z,99835.70
2023-03-06T08:59:05.821Z,99834.97
2023-03-06T09:01:37.811Z,99834.80
2023-03-06T09:04:10.910Z,99836.55
2023-03-06T09:06:43.111Z,99837.73
2023-03-06T09:09:12.751Z,99839.02
2023-03-06T09:11:41.274Z,99844.65
2023-03-06T09:14:09.799Z,99842.70
2023-03-06T09:16:38.516Z,99840.48
2023-03-06T09:19:07.285Z,99849.23
2023-03-06T09:21:35.817Z,99847.65
2023-03-06T09:24:04.563Z,99848.55
2023-03-06T09:26:45.054Z,99843.56
2023-03-06T09:29:16.471Z,99845.66
2023-03-06T09:31:46.148Z,99840.24
2023-03-06T09:34:14.784Z,99838.56
2023-03-06T09:36:55.913Z,99846.80
2023-03-06T09:39:26.462Z,99844.15
2023-03-06T09:41:57.419Z,99841.15
2023-03-06T09:44:32.431Z,99837.59
2023-03-06T09:47:34.627Z,99839.83
2023-03-06T09:50:44.847Z,99841.15
2023-03-06T09:53:33.401Z,99837.66
2023-03-06T09:56:18.242Z,99834.48
2023-03-06T09:58:56.137Z,99827.98
2023-03-06T10:01:28.559Z,99828.63
2023-03-06T10:04:31.010Z,99820.45
2023-03-06T10:07:25.641Z,99818.54
2023-03-06T10:10:02.177Z,99814.45
2023-03-06T10:12:41.365Z,99819.35
2023-03-06T10:15:34.448Z,99823.31
2023-03-06T10:18:04.088Z,99826.61
2023-03-06T10:20:43.434Z,99825.89
2023-03-06T10:23:47.850Z,99823.70
2023-03-06T10:26:20.694Z,99818.38
2023-03-06T10:29:13.560Z,99815.28
2023-03-06T10:31:49.585Z,99815.31
2023-03-06T10:34:33.195Z,99814.66
2023-03-06T10:37:17.849Z,99807.65
2023-03-06T10:39:48.597Z,99809.05
2023-03-06T10:42:17.840Z,99804.05
2023-03-06T10:44:46.263Z,99808.01
2023-03-06T10:47:37.822Z,99813.13
2023-03-06T10:50:30.759Z,99804.41
2023-03-06T10:53:19.171Z,99801.81
2023-03-06T10:56:09.971Z,99799.36
2023-03-06T10:58:38.397Z,99796.31
2023-03-06T11:01:29.168Z,99794.55
2023-03-06T11:04:29.338Z,99792.39
2023-03-06T11:07:14.604Z,99795.45
2023-03-06T11:10:16.678Z,99796.52
2023-03-06T11:12:56.654Z,99797.77
2023-03-06T11:15:27.683Z,99802.26
2023-03-06T11:18:07.897Z,99798.55
2023-03-06T11:21:24.353Z,99790.82
2023-03-06T11:23:54.620Z,99788.66
2023-03-06T11:26:51.976Z,99787.88
2023-03-06T11:29:42.585Z,99787.58
2023-03-06T11:32:24.284Z,99785.52
2023-03-06T11:34:59.428Z,99780.76
2023-03-06T11:38:21.195Z,99777.06
2023-03-06T11:41:00.425Z,99779.18
2023-03-06T11:44:14.682Z,99776.05
2023-03-06T11:46:53.129Z,99777.21
2023-03-06T11:49:44.472Z,99777.73
2023-03-06T11:52:23.953Z,99777.52
2023-03-06T11:54:57.882Z,99779.08
2023-03-06T11:57:39.650Z,99774.79
2023-03-06T12:00:20.228Z,99774.48
2023-03-06T12:03:09.676Z,99775.36
2023-03-06T12:05:51.408Z,99772.48
2023-03-06T12:08:40.187Z,99771.55
2023-03-06T12:14:02.459Z,99767.41
2023-03-06T12:16:48.986Z,99765.31
2023-03-06T12:19:28.818Z,99760.12
2023-03-06T12:22:21.589Z,99759.17
2023-03-06T12:25:35.411Z,99759.69
2023-03-06T12:28:34.355Z,99760.69
2023-03-06T12:31:38.116Z,99758.02
2023-03-06T12:34:12.484Z,99758.73
2023-03-06T12:37:01.563Z,99756.58
2023-03-06T12:40:11.033Z,99760.76
2023-03-06T12:42:54.206Z,99754.30
2023-03-06T12:45:37.224Z,99751.91
2023-03-06T12:48:21.267Z,99751.92
2023-03-06T12:50:50.683Z,99755.39
2023-03-06T12:53:32.037Z,99755.57
2023-03-06T12:56:02.709Z,99756.37
2023-03-06T12:58:31.225Z,99758.24
2023-03-06T13:01:27.449Z,99755.97
2023-03-06T13:04:27.357Z,99752.80
2023-03-06T13:07:35.499Z,99752.70
2023-03-06T13:10:15.782Z,99752.75
2023-03-06T13:13:24.173Z,99745.92
2023-03-06T13:16:43.843Z,99748.65
2023-03-06T13:19:26.669Z,99751.83
2023-03-06T13:21:55.087Z,99747.38
2023-03-06T13:24:24.769Z,99756.99
2023-03-06T13:27:08.925Z,99757.52
2023-03-06T13:29:37.395Z,99746.94
2023-03-06T13:32:17.642Z,99752.52
2023-03-06T13:34:50.244Z,99753.03
2023-03-06T13:37:23.387Z,99749.34
2023-03-06T13:40:00.466Z,99750.65
2023-03-06T13:42:32.681Z,99744.09
2023-03-06T13:45:44.990Z,99747.70
2023-03-06T13:48:46.571Z,99745.20
2023-03-06T13:51:27.347Z,99742.27
2023-03-06T13:54:19.606Z,99739.72
2023-03-06T13:57:48.520Z,99741.91
2023-03-06T14:01:13.348Z,99744.03
2023-03-06T14:04:18.467Z,99741.45
2023-03-06T14:06:53.516Z,99742.53
2023-03-06T14:09:32.842Z,99733.30
2023-03-06T14:12:15.051Z,99744.54
2023-03-06T14:14:50.969Z,99745.46
2023-03-06T14:17:39.265Z,99741.77
2023-03-06T14:20:17.984Z,99739.94
2023-03-06T14:22:46.708Z,99742.52
2023-03-06T14:25:31.517Z,99744.85
2023-03-06T14:28:12.320Z,99743.04
2023-03-06T14:30:51.259Z,99741.70
2023-03-06T14:33:34.751Z,99741.60
2023-03-06T14:36:09.816Z,99740.78
2023-03-06T14:38:48.838Z,99746.33
2023-03-06T14:41:32.945Z,99745.64
2023-03-06T14:44:22.316Z,99747.27
2023-03-06T14:46:57.341Z,99747.19
2023-03-06T14:49:27.012Z,99747.43
2023-03-06T14:52:00.735Z,99746.36
2023-03-06T14:54:34.742Z,99742.73
2023-03-06T14:57:13.024Z,99742.66
2023-03-06T14:59:49.621Z,99739.03
2023-03-06T15:02:23.611Z,99740.38
2023-03-06T15:04:58.392Z,99736.42
2023-03-06T15:07:33.063Z,99735.23
2023-03-06T15:10:01.537Z,99735.24
2023-03-06T15:12:38.808Z,99733.29
2023-03-06T15:15:08.231Z,99734.21
2023-03-06T15:17:45.393Z,99733.23
2023-03-06T15:20:52.451Z,99734.67
2023-03-06T15:23:35.593Z,99740.38
2023-03-06T15:26:36.962Z,99741.92
2023-03-06T15:29:11.489Z,99743.92
2023-03-06T15:31:45.252Z,99741.93
2023-03-06T15:34:23.782Z,99739.39
2023-03-06T15:36:55.895Z,99742.95
2023-03-06T15:39:33.182Z,99745.51
2023-03-06T15:42:26.535Z,99740.70
2023-03-06T15:44:58.223Z,99744.73
2023-03-06T15:47:26.753Z,99740.92
2023-03-06T15:49:55.543Z,99739.02
2023-03-06T15:52:24.190Z,99742.91
2023-03-06T15:54:52.783Z,99741.85
2023-03-06T15:57:31.299Z,99745.42
2023-03-06T16:00:01.606Z,99752.46
2023-03-06T16:02:39.803Z,99755.52
2023-03-06T16:05:18.735Z,99758.64
2023-03-06T16:07:48.366Z,99760.15
2023-03-06T16:10:20.974Z,99761.43
2023-03-06T16:12:54.168Z,99765.63
2023-03-06T16:15:30.904Z,99774.26
2023-03-06T16:18:00.375Z,99776.16
2023-03-06T16:20:29.851Z,99777.88
2023-03-06T16:22:58.402Z,99777.11
2023-03-06T16:25:28.418Z,99777.80
2023-03-06T16:27:58.439Z,99775.65
2023-03-06T16:30:35.502Z,99779.67
2023-03-06T16:33:05.042Z,99784.63
2023-03-06T16:35:33.588Z,99784.67
2023-03-06T16:38:02.051Z,99787.72
2023-03-06T16:40:37.767Z,99793.63
2023-03-06T16:43:06.206Z,99797.67
2023-03-06T16:45:41.073Z,99799.02
2023-03-06T16:48:15.936Z,99798.75
2023-03-06T16:50:45.446Z,99801.73
2023-03-06T16:53:15.481Z,99798.23
2023-03-06T16:55:44.286Z,99794.89
2023-03-06T16:58:12.953Z,99793.95
2023-03-06T17:00:41.665Z,99797.16
2023-03-06T17:03:10.080Z,99796.61
2023-03-06T17:05:39.023Z,99796.20
2023-03-06T17:08:07.495Z,99796.93
2023-03-06T17:10:39.124Z,99797.67
2023-03-06T17:13:09.005Z,99797.29
2023-03-06T17:15:37.536Z,99794.42
2023-03-06T17:18:06.532Z,99795.98
2023-03-06T17:20:35.328Z,99791.32
2023-03-06T17:23:03.744Z,99792.06
2023-03-06T17:25:34.616Z,99794.33
2023-03-06T17:28:03.292Z,99790.43
2023-03-06T17:30:31.701Z,99789.27
2023-03-06T17:33:00.865Z,99787.79
2023-03-06T17:35:29.492Z,99786.60
2023-03-06T17:37:58.188Z,99787.02
2023-03-06T17:40:26.953Z,99789.23
2023-03-06T17:42:55.417Z,99791.85
2023-03-06T17:45:24.008Z,99793.94
2023-03-06T17:47:55.946Z,99797.15
2023-03-06T17:50:24.519Z,99797.57
2023-03-06T17:52:52.955Z,99800.09
2023-03-06T17:55:21.569Z,99798.73
2023-03-06T17:57:52.811Z,99803.67
2023-03-06T18:00:23.027Z,99807.90
2023-03-06T18:02:51.761Z,99811.80
2023-03-06T18:05:21.883Z,99811.69
2023-03-06T18:07:50.562Z,99811.30
2023-03-06T18:10:19.078Z,99809.46
2023-03-06T18:12:47.520Z,99808.35
2023-03-06T18:15:16.214Z,99807.55
2023-03-06T18:17:45.295Z,99813.08
2023-03-06T18:20:14.341Z,99815.59
2023-03-06T18:22:42.822Z,99816.02
2023-03-06T18:25:11.359Z,99811.85
2023-03-06T18:27:39.936Z,99812.70
2023-03-06T18:30:09.392Z,99816.84
2023-03-06T18:32:38.155Z,99815.66
2023-03-06T18:35:09.322Z,99814.20
2023-03-06T18:37:37.982Z,99812.66
2023-03-06T18:40:07.548Z,99808.26
2023-03-06T18:42:35.993Z,99808.08
2023-03-06T18:45:05.327Z,99808.30
2023-03-06T18:47:33.852Z,99811.22
2023-03-06T18:50:05.296Z,99808.76
2023-03-06T18:52:35.061Z,99810.46
2023-03-06T18:55:04.172Z,99809.23
2023-03-06T18:57:32.592Z,99813.42
2023-03-06T19:00:01.806Z,99816.84
2023-03-06T19:02:30.617Z,99814.95
2023-03-06T19:04:59.444Z,99822.10
2023-03-06T19:07:28.406Z,99816.37
2023-03-06T19:09:57.000Z,99809.32
2023-03-06T19:12:25.408Z,99800.95
2023-03-06T19:14:53.802Z,99799.26
2023-03-06T19:17:24.849Z,99793.74
2023-03-06T19:19:55.149Z,99792.23
2023-03-06T19:22:23.757Z,99794.97
2023-03-06T19:24:52.264Z,99792.58
2023-03-06T19:27:20.888Z,99793.32
2023-03-06T19:29:49.385Z,99799.02
2023-03-06T19:32:18.154Z,99794.59
2023-03-06T19:34:49.300Z,99789.92
2023-03-06T19:37:18.024Z,99786.63
2023-03-06T19:39:46.460Z,99788.14
2023-03-06T19:42:14.939Z,99784.96
2023-03-06T19:44:43.434Z,99785.28
2023-03-06T19:47:11.923Z,99784.65
2023-03-06T19:49:40.476Z,99781.79
2023-03-06T19:52:09.063Z,99781.60
2023-03-06T19:54:37.647Z,99787.76
2023-03-06T19:57:06.078Z,99784.30
2023-03-06T19:59:34.456Z,99784.36
2023-03-06T20:02:02.899Z,99786.83
2023-03-06T20:04:35.207Z,99787.16
2023-03-06T20:07:05.081Z,99785.24
2023-03-06T20:09:34.133Z,99785.08
2023-03-06T20:12:03.194Z,99785.41
2023-03-06T20:14:31.687Z,99787.83
2023-03-06T20:17:00.402Z,99785.00
2023-03-06T20:19:29.158Z,99780.23
2023-03-06T20:21:57.579Z,99783.59
2023-03-06T20:24:26.208Z,99780.90
2023-03-06T20:26:57.629Z,99778.22
2023-03-06T20:29:28.218Z,99781.08
2023-03-06T20:31:58.055Z,99782.05
2023-03-06T20:34:26.889Z,99778.17
2023-03-06T20:36:56.912Z,99776.48
2023-03-06T20:39:25.510Z,99773.06
2023-03-06T20:41:54.009Z,99773.01
2023-03-06T20:44:23.242Z,99770.41
2023-03-06T20:46:52.257Z,99763.86
2023-03-06T20:49:21.689Z,99761.09
2023-03-06T20:51:50.483Z,99759.05
2023-03-06T20:54:18.987Z,99755.34
2023-03-06T20:56:49.168Z,99749.52
2023-03-06T20:59:17.887Z,99740.63
2023-03-06T21:01:48.039Z,99736.70
2023-03-06T21:04:16.953Z,99731.69
2023-03-06T21:06:47.136Z,99734.48
2023-03-06T21:09:17.166Z,99729.95
2023-03-06T21:11:46.541Z,99723.70
2023-03-06T21:14:15.587Z,99716.91
2023-03-06T21:16:44.821Z,99708.17
2023-03-06T21:19:13.540Z,99701.98
2023-03-06T21:21:42.108Z,99698.56
2023-03-06T21:24:11.068Z,99691.52
2023-03-06T21:26:39.486Z,99686.73
2023-03-06T21:29:08.265Z,99684.19
2023-03-06T21:31:36.702Z,99678.04
2023-03-06T21:34:06.438Z,99677.23
2023-03-06T21:36:34.923Z,99676.75
2023-03-06T21:39:06.418Z,99674.88
2023-03-06T21:41:35.205Z,99672.27
2023-03-06T21:44:05.841Z,99667.69
2023-03-06T21:46:34.675Z,99660.45
2023-03-06T21:49:05.402Z,99667.35
2023-03-06T21:51:34.186Z,99666.92
2023-03-06T21:54:03.056Z,99666.84
2023-03-06T21:56:33.532Z,99670.17
2023-03-06T21:59:02.193Z,99667.91
2023-03-06T22:01:31.060Z,99665.48
2023-03-06T22:04:00.389Z,99663.77
2023-03-06T22:06:31.231Z,99667.30
2023-03-06T22:09:00.785Z,99667.86
2023-03-06T22:11:36.894Z,99670.19
2023-03-06T22:14:06.507Z,99669.63
2023-03-06T22:16:35.082Z,99673.27
2023-03-06T22:19:03.767Z,99675.48
2023-03-06T22:21:32.302Z,99677.27
2023-03-06T22:24:00.769Z,99672.23
2023-03-06T22:26:31.620Z,99676.77
2023-03-06T22:29:00.116Z,99679.68
2023-03-06T22:31:29.256Z,99679.45
2023-03-06T22:34:00.455Z,99678.08
2023-03-06T22:36:30.972Z,99676.53
2023-03-06T22:39:02.101Z,99674.69
2023-03-06T22:41:31.071Z,99671.09
2023-03-06T22:44:01.962Z,99674.85
2023-03-06T22:46:32.071Z,99676.91
2023-03-06T22:49:02.011Z,99679.34
2023-03-06T22:51:30.540Z,99683.68
2023-03-06T22:53:59.194Z,99680.84
2023-03-06T22:56:27.678Z,99680.97
2023-03-06T22:58:57.870Z,99676.91
2023-03-06T23:01:33.737Z,99676.44
2023-03-06T23:04:05.025Z,99679.01
2023-03-06T23:06:43.276Z,99675.09
2023-03-06T23:09:20.773Z,99667.90
2023-03-06T23:12:09.158Z,99660.92
2023-03-06T23:14:56.353Z,99658.89
2023-03-06T23:17:42.939Z,99648.88
2023-03-06T23:20:30.027Z,99645.09
2023-03-06T23:23:16.826Z,99639.41
2023-03-06T23:25:45.197Z,99632.46
2023-03-06T23:28:13.720Z,99629.09
2023-03-06T23:30:42.491Z,99628.39
2023-03-06T23:33:11.660Z,99625.10
2023-03-06T23:35:40.215Z,99625.84
2023-03-06T23:38:08.711Z,99621.27
2023-03-06T23:40:38.408Z,99618.59
2023-03-06T23:43:06.913Z,99616.30
2023-03-06T23:45:35.433Z,99608.38
2023-03-06T23:48:08.053Z,99604.85
2023-03-06T23:50:41.221Z,99605.44
2023-03-06T23:53:09.728Z,99602.84
2023-03-06T23:55:49.919Z,99597.94
2023-03-06T23:58:19.943Z,99597.77
